createdAt,value
2023-01-23T00:01:24.972Z,14.75
2023-01-23T00:03:55.178Z,12.82
2023-01-23T00:06:22.822Z,14.32
2023-01-23T00:08:49.778Z,13.80
2023-01-23T00:11:19.262Z,12.85
2023-01-23T00:13:47.774Z,12.27
2023-01-23T00:16:18.357Z,13.93
2023-01-23T00:18:45.683Z,14.60
2023-01-23T00:21:15.645Z,13.57
2023-01-23T00:23:45.049Z,13.65
2023-01-23T00:26:16.907Z,12.88
2023-01-23T00:28:45.098Z,13.77
2023-01-23T00:31:15.927Z,14.55
2023-01-23T00:33:45.213Z,13.93
2023-01-23T00:36:13.813Z,14.40
2023-01-23T00:38:41.288Z,13.15
2023-01-23T00:41:07.776Z,12.90
2023-01-23T00:43:34.835Z,14.02
2023-01-23T00:46:01.375Z,14.50
2023-01-23T00:48:27.968Z,13.70
2023-01-23T00:50:54.642Z,14.27
2023-01-23T00:53:22.255Z,13.25
2023-01-23T00:55:49.025Z,13.65
2023-01-23T00:58:15.892Z,12.35
2023-01-23T01:00:42.814Z,13.68
2023-01-23T01:03:09.773Z,13.73
2023-01-23T01:05:36.618Z,14.35
2023-01-23T01:10:32.728Z,12.93
2023-01-23T01:13:01.429Z,14.50
2023-01-23T01:15:28.932Z,15.68
2023-01-23T01:17:55.589Z,15.13
2023-01-23T01:20:23.787Z,15.05
2023-01-23T01:22:50.727Z,13.98
2023-01-23T01:25:17.462Z,14.85
2023-01-23T01:27:44.495Z,14.18
2023-01-23T01:30:12.128Z,15.93
2023-01-23T01:32:41.204Z,17.40
2023-01-23T01:35:09.366Z,14.85
2023-01-23T01:37:39.106Z,15.43
2023-01-23T01:40:08.014Z,13.68
2023-01-23T01:42:48.367Z,16.05
2023-01-23T01:45:52.826Z,15.95
2023-01-23T01:48:23.798Z,16.17
2023-01-23T01:50:51.368Z,14.95
2023-01-23T01:53:21.549Z,14.50
2023-01-23T01:55:48.849Z,16.40
2023-01-23T01:58:15.697Z,13.80
2023-01-23T02:00:43.388Z,15.52
2023-01-23T02:03:11.319Z,14.18
2023-01-23T02:05:47.324Z,14.90
2023-01-23T02:08:32.686Z,15.52
2023-01-23T02:11:02.022Z,15.32
2023-01-23T02:13:38.737Z,14.98
2023-01-23T02:16:07.123Z,15.15
2023-01-23T02:18:35.664Z,16.40
2023-01-23T02:21:06.667Z,14.30
2023-01-23T02:24:00.435Z,15.45
2023-01-23T02:26:44.677Z,14.05
2023-01-23T02:29:12.281Z,15.73
2023-01-23T02:31:39.148Z,15.10
2023-01-23T02:34:05.990Z,15.23
2023-01-23T02:36:34.960Z,13.63
2023-01-23T02:39:06.375Z,15.10
2023-01-23T02:41:41.114Z,13.65
2023-01-23T02:44:29.238Z,14.40
2023-01-23T02:46:58.139Z,13.82
2023-01-23T02:49:24.862Z,14.35
2023-01-23T02:51:52.216Z,15.13
2023-01-23T02:54:18.776Z,13.70
2023-01-23T02:56:45.858Z,12.55
2023-01-23T02:59:31.366Z,12.45
2023-01-23T03:01:58.179Z,16.08
2023-01-23T03:04:25.185Z,15.18
2023-01-23T03:06:52.100Z,17.02
2023-01-23T03:09:19.298Z,16.05
2023-01-23T03:11:47.063Z,12.95
2023-01-23T03:14:16.465Z,14.52
2023-01-23T03:16:46.872Z,13.65
2023-01-23T03:19:13.411Z,13.40
2023-01-23T03:21:40.781Z,13.95
2023-01-23T03:24:10.005Z,14.95
2023-01-23T03:26:41.862Z,14.98
2023-01-23T03:29:32.903Z,13.52
2023-01-23T03:31:59.344Z,12.45
2023-01-23T03:34:26.394Z,12.93
2023-01-23T03:36:53.012Z,13.65
2023-01-23T03:39:38.291Z,13.85
2023-01-23T03:42:04.712Z,13.07
2023-01-23T03:44:31.326Z,13.40
2023-01-23T03:46:57.917Z,13.93
2023-01-23T03:51:51.405Z,12.10
2023-01-23T03:54:18.013Z,14.18
2023-01-23T03:56:44.681Z,13.02
2023-01-23T03:59:11.274Z,13.60
2023-01-23T04:01:38.445Z,12.95
2023-01-23T04:06:31.831Z,12.48
2023-01-23T04:08:58.442Z,13.05
2023-01-23T04:11:26.403Z,12.13
2023-01-23T04:13:54.007Z,14.98
2023-01-23T04:16:22.696Z,15.23
2023-01-23T04:18:50.699Z,13.55
2023-01-23T04:21:17.693Z,11.52
2023-01-23T04:23:44.631Z,12.75
2023-01-23T04:26:11.242Z,14.55
2023-01-23T04:28:37.905Z,13.13
2023-01-23T04:31:05.375Z,14.15
2023-01-23T04:36:04.339Z,14.68
2023-01-23T04:38:31.839Z,13.63
2023-01-23T04:40:59.435Z,10.98
2023-01-23T04:43:26.439Z,14.82
2023-01-23T04:45:55.023Z,14.13
2023-01-23T04:48:22.774Z,12.45
2023-01-23T04:50:50.483Z,12.52
2023-01-23T04:53:17.282Z,14.13
2023-01-23T04:55:46.783Z,11.02
2023-01-23T04:58:13.458Z,12.55
2023-01-23T05:00:40.077Z,14.30
2023-01-23T05:03:06.842Z,11.90
2023-01-23T05:05:33.708Z,10.57
2023-01-23T05:08:00.772Z,11.82
2023-01-23T05:10:27.207Z,11.73
2023-01-23T05:12:53.891Z,9.35
2023-01-23T05:15:21.237Z,12.48
2023-01-23T05:17:49.120Z,10.95
2023-01-23T05:22:54.561Z,11.85
2023-01-23T05:25:24.291Z,9.75
2023-01-23T05:27:51.471Z,10.90
2023-01-23T05:32:47.444Z,9.73
2023-01-23T05:35:15.269Z,13.13
2023-01-23T05:37:42.290Z,12.52
2023-01-23T05:40:13.055Z,12.77
2023-01-23T05:42:39.987Z,14.00
2023-01-23T05:45:07.085Z,11.35
2023-01-23T05:47:34.194Z,13.52
2023-01-23T05:50:01.187Z,13.10
2023-01-23T05:52:28.053Z,15.50
2023-01-23T05:54:54.787Z,12.52
2023-01-23T05:57:21.915Z,13.35
2023-01-23T05:59:49.231Z,14.23
2023-01-23T06:02:15.963Z,13.77
2023-01-23T06:04:42.403Z,11.13
2023-01-23T06:07:16.863Z,12.27
2023-01-23T06:09:43.605Z,15.48
2023-01-23T06:12:10.637Z,17.30
2023-01-23T06:14:37.284Z,14.07
2023-01-23T06:17:04.677Z,13.00
2023-01-23T06:19:31.381Z,12.60
2023-01-23T06:21:58.704Z,13.20
2023-01-23T06:24:25.599Z,14.00
2023-01-23T06:26:52.200Z,10.18
2023-01-23T06:29:18.700Z,12.65
2023-01-23T06:31:46.792Z,12.73
2023-01-23T06:34:14.665Z,12.65
2023-01-23T06:36:42.148Z,14.25
2023-01-23T06:39:12.914Z,11.73
2023-01-23T06:41:39.858Z,11.80
2023-01-23T06:44:07.750Z,12.77
2023-01-23T06:46:34.668Z,11.02
2023-01-23T06:49:01.379Z,10.63
2023-01-23T06:53:56.266Z,10.10
2023-01-23T06:56:23.426Z,11.18
2023-01-23T06:58:50.274Z,13.45
2023-01-23T07:03:45.438Z,10.27
2023-01-23T07:06:13.315Z,10.57
2023-01-23T07:08:41.159Z,13.25
2023-01-23T07:11:09.123Z,11.82
2023-01-23T07:13:36.234Z,11.75
2023-01-23T07:16:03.315Z,11.60
2023-01-23T07:18:30.399Z,10.65
2023-01-23T07:23:23.991Z,9.57
2023-01-23T07:25:50.504Z,13.50
2023-01-23T07:30:44.335Z,11.30
2023-01-23T07:33:12.146Z,13.73
2023-01-23T07:35:39.443Z,14.30
2023-01-23T07:38:06.533Z,12.95
2023-01-23T07:40:32.995Z,13.00
2023-01-23T07:45:26.770Z,12.65
2023-01-23T07:47:53.439Z,12.82
2023-01-23T07:50:20.900Z,12.77
2023-01-23T07:52:47.907Z,14.05
2023-01-23T07:55:14.546Z,12.32
2023-01-23T07:57:41.163Z,12.80
2023-01-23T08:00:09.175Z,13.23
2023-01-23T08:02:37.633Z,14.98
2023-01-23T08:05:04.378Z,14.00
2023-01-23T08:07:31.008Z,14.13
2023-01-23T08:09:57.486Z,16.83
2023-01-23T08:12:23.924Z,13.23
2023-01-23T08:14:50.419Z,16.00
2023-01-23T08:17:16.861Z,14.48
2023-01-23T08:19:44.324Z,17.20
2023-01-23T08:22:10.832Z,14.65
2023-01-23T08:24:37.984Z,11.63
2023-01-23T08:27:04.465Z,11.73
2023-01-23T08:29:31.811Z,11.80
2023-01-23T08:31:58.993Z,12.88
2023-01-23T08:34:26.026Z,12.05
2023-01-23T08:36:52.429Z,13.50
2023-01-23T08:39:24.430Z,12.57
2023-01-23T08:41:51.361Z,10.88
2023-01-23T08:44:17.708Z,12.30
2023-01-23T08:46:45.777Z,12.82
2023-01-23T08:49:12.366Z,10.90
2023-01-23T08:54:06.494Z,12.02
2023-01-23T08:56:33.155Z,10.25
2023-01-23T08:58:59.659Z,12.02
2023-01-23T09:01:27.224Z,23.25
2023-01-23T09:03:54.168Z,30.77
2023-01-23T09:06:21.987Z,31.45
2023-01-23T09:08:49.422Z,14.63
2023-01-23T09:11:16.848Z,13.48
2023-01-23T09:13:43.507Z,14.25
2023-01-23T09:16:10.256Z,12.15
2023-01-23T09:18:37.367Z,10.57
2023-01-23T09:21:10.174Z,12.65
2023-01-23T09:23:37.209Z,10.75
2023-01-23T09:26:10.468Z,10.32
2023-01-23T09:28:38.732Z,11.07
2023-01-23T09:31:10.799Z,10.48
2023-01-23T09:33:38.208Z,10.90
2023-01-23T09:36:05.550Z,10.88
2023-01-23T09:38:33.890Z,10.23
2023-01-23T09:41:07.571Z,9.60
2023-01-23T09:43:49.658Z,9.77
2023-01-23T09:46:39.687Z,9.35
2023-01-23T09:49:26.476Z,10.00
2023-01-23T09:52:06.081Z,9.93
2023-01-23T09:54:44.548Z,9.57
2023-01-23T09:57:18.171Z,7.82
2023-01-23T10:00:00.352Z,12.45
2023-01-23T10:02:27.907Z,9.77
2023-01-23T10:07:48.059Z,8.23
2023-01-23T10:10:36.531Z,9.68
2023-01-23T10:13:11.264Z,9.80
2023-01-23T10:16:14.260Z,9.93
2023-01-23T10:18:47.754Z,10.90
2023-01-23T10:21:39.555Z,8.18
2023-01-23T10:26:50.625Z,10.48
2023-01-23T10:29:27.108Z,10.10
2023-01-23T10:31:57.179Z,10.35
2023-01-23T10:34:48.791Z,9.32
2023-01-23T10:37:37.262Z,9.27
2023-01-23T10:40:12.983Z,9.13
2023-01-23T10:42:39.500Z,9.20
2023-01-23T10:45:07.763Z,10.25
2023-01-23T10:47:42.924Z,6.82
2023-01-23T10:50:10.772Z,10.63
2023-01-23T10:52:42.206Z,7.65
2023-01-23T10:55:24.266Z,9.90
2023-01-23T10:57:56.214Z,9.48
2023-01-23T11:00:46.457Z,9.35
2023-01-23T11:03:21.751Z,6.55
2023-01-23T11:05:56.585Z,7.00
2023-01-23T11:08:36.365Z,6.35
2023-01-23T11:11:15.361Z,7.22
2023-01-23T11:13:43.853Z,9.50
2023-01-23T11:16:19.413Z,9.30
2023-01-23T11:19:09.128Z,7.32
2023-01-23T11:21:46.192Z,7.80
2023-01-23T11:24:40.830Z,9.38
2023-01-23T11:27:29.834Z,7.97
2023-01-23T11:30:08.242Z,6.90
2023-01-23T11:32:47.397Z,6.13
2023-01-23T11:35:24.369Z,7.85
2023-01-23T11:37:52.635Z,6.30
2023-01-23T11:40:20.555Z,7.60
2023-01-23T11:42:48.362Z,7.05
2023-01-23T11:45:46.455Z,7.93
2023-01-23T11:48:22.951Z,6.65
2023-01-23T11:50:56.097Z,7.57
2023-01-23T11:53:41.876Z,6.80
2023-01-23T11:56:28.521Z,6.82
2023-01-23T11:59:09.138Z,6.38
2023-01-23T12:02:03.404Z,6.82
2023-01-23T12:04:39.429Z,4.78
2023-01-23T12:07:17.424Z,5.90
2023-01-23T12:09:59.663Z,4.45
2023-01-23T12:12:47.353Z,4.97
2023-01-23T12:15:20.650Z,3.83
2023-01-23T12:20:23.132Z,6.05
2023-01-23T12:23:01.893Z,4.10
2023-01-23T12:25:35.248Z,4.25
2023-01-23T12:28:28.348Z,5.18
2023-01-23T12:31:33.451Z,4.50
2023-01-23T12:34:33.527Z,3.60
2023-01-23T12:37:29.587Z,3.80
2023-01-23T12:40:22.412Z,3.42
2023-01-23T12:43:04.425Z,4.22
2023-01-23T12:45:32.900Z,4.95
2023-01-23T12:48:25.245Z,4.45
2023-01-23T12:50:55.806Z,5.28
2023-01-23T12:53:23.537Z,3.78
2023-01-23T12:58:36.291Z,4.57
2023-01-23T13:01:06.024Z,4.28
2023-01-23T13:03:47.223Z,4.40
2023-01-23T13:06:22.926Z,4.03
2023-01-23T13:09:12.959Z,3.63
2023-01-23T13:12:04.823Z,3.67
2023-01-23T13:14:37.507Z,6.25
2023-01-23T13:17:57.810Z,5.97
2023-01-23T13:20:52.506Z,7.93
2023-01-23T13:23:36.602Z,5.68
2023-01-23T13:26:15.162Z,7.57
2023-01-23T13:28:50.188Z,6.38
2023-01-23T13:31:46.611Z,5.10
2023-01-23T13:36:51.610Z,6.05
2023-01-23T13:39:22.448Z,4.13
2023-01-23T13:42:10.713Z,5.32
2023-01-23T13:45:15.851Z,4.72
2023-01-23T14:22:11.231Z,5.13
2023-01-23T14:24:46.426Z,5.05
2023-01-23T14:27:30.140Z,6.45
2023-01-23T14:29:58.987Z,5.13
2023-01-23T14:32:29.294Z,8.30
2023-01-23T14:34:55.993Z,5.95
2023-01-23T14:37:23.476Z,6.63
2023-01-23T14:39:53.679Z,7.43
2023-01-23T14:42:26.550Z,6.50
2023-01-23T14:44:55.354Z,5.85
2023-01-23T14:47:39.429Z,7.68
2023-01-23T14:50:10.696Z,6.15
2023-01-23T14:52:37.605Z,7.22
2023-01-23T14:55:29.220Z,6.18
2023-01-23T14:57:59.402Z,6.70
2023-01-23T15:00:27.274Z,6.20
2023-01-23T15:02:56.747Z,5.82
2023-01-23T15:05:29.481Z,7.10
2023-01-23T15:07:56.057Z,6.60
2023-01-23T15:10:28.361Z,6.00
2023-01-23T15:12:57.748Z,8.20
2023-01-23T15:15:26.209Z,6.53
2023-01-23T15:17:54.346Z,6.55
2023-01-23T15:20:32.012Z,6.82
2023-01-23T15:23:20.855Z,7.90
2023-01-23T15:25:54.628Z,8.30
2023-01-23T15:28:48.155Z,7.93
2023-01-23T15:31:36.194Z,6.88
2023-01-23T15:34:15.111Z,6.93
2023-01-23T15:37:27.226Z,6.85
2023-01-23T15:40:02.334Z,6.22
2023-01-23T15:42:34.543Z,6.40
2023-01-23T15:45:01.764Z,6.38
2023-01-23T15:47:30.576Z,6.22
2023-01-23T15:50:01.384Z,6.95
2023-01-23T15:52:30.716Z,5.53
2023-01-23T15:55:02.853Z,7.35
2023-01-23T15:59:57.653Z,6.90
2023-01-23T16:02:31.232Z,6.78
2023-01-23T16:05:00.970Z,6.55
2023-01-23T16:07:36.773Z,7.32
2023-01-23T16:10:25.927Z,6.68
2023-01-23T16:12:57.052Z,6.20
2023-01-23T16:15:29.414Z,7.38
2023-01-23T16:17:57.117Z,7.63
2023-01-23T16:20:28.003Z,8.57
2023-01-23T16:23:14.664Z,8.38
2023-01-23T16:25:45.149Z,8.25
2023-01-23T16:28:23.843Z,8.40
2023-01-23T16:30:51.730Z,9.18
2023-01-23T16:33:18.993Z,7.20
2023-01-23T16:35:46.171Z,6.53
2023-01-23T16:38:26.943Z,6.70
2023-01-23T16:40:55.195Z,7.50
2023-01-23T16:43:22.653Z,8.50
2023-01-23T16:45:54.259Z,8.68
2023-01-23T16:48:27.115Z,5.95
2023-01-23T16:50:58.795Z,7.47
2023-01-23T16:53:37.898Z,7.57
2023-01-23T16:56:06.124Z,7.28
2023-01-23T16:58:39.121Z,6.07
2023-01-23T17:01:15.283Z,8.63
2023-01-23T17:03:42.803Z,8.23
2023-01-23T17:06:15.491Z,6.50
2023-01-23T17:08:42.199Z,7.75
2023-01-23T17:11:17.707Z,5.40
2023-01-23T17:13:44.814Z,8.02
2023-01-23T17:16:26.142Z,6.40
2023-01-23T17:18:56.434Z,7.30
2023-01-23T17:21:27.409Z,8.23
2023-01-23T17:23:54.052Z,6.30
2023-01-23T17:26:20.898Z,6.38
2023-01-23T17:28:48.085Z,7.60
2023-01-23T17:31:23.605Z,6.18
2023-01-23T17:33:52.533Z,6.47
2023-01-23T17:36:19.748Z,6.18
2023-01-23T17:38:47.508Z,5.78
2023-01-23T17:41:15.532Z,7.45
2023-01-23T17:43:44.253Z,6.68
2023-01-23T17:46:28.195Z,7.40
2023-01-23T17:48:56.572Z,8.25
2023-01-23T17:51:24.556Z,9.68
2023-01-23T17:53:52.279Z,7.63
2023-01-23T17:56:19.171Z,7.60
2023-01-23T17:58:45.746Z,7.53
2023-01-23T18:01:21.777Z,8.40
2023-01-23T18:03:50.423Z,7.20
2023-01-23T18:06:18.124Z,8.02
2023-01-23T18:08:45.120Z,8.82
2023-01-23T18:11:32.396Z,7.47
2023-01-23T18:14:08.625Z,8.48
2023-01-23T18:16:41.806Z,9.07
2023-01-23T18:19:20.427Z,10.85
2023-01-23T18:21:50.403Z,9.23
2023-01-23T18:24:23.983Z,8.52
2023-01-23T18:27:22.296Z,8.88
2023-01-23T18:30:03.848Z,8.38
2023-01-23T18:32:52.918Z,8.48
2023-01-23T18:35:50.765Z,10.02
2023-01-23T18:38:43.876Z,9.30
2023-01-23T18:41:25.145Z,8.48
2023-01-23T18:43:51.991Z,7.90
2023-01-23T18:46:20.788Z,8.65
2023-01-23T18:48:49.312Z,8.02
2023-01-23T18:51:34.832Z,8.75
2023-01-23T18:54:20.824Z,9.02
2023-01-23T18:57:12.646Z,9.48
2023-01-23T19:00:06.254Z,9.93
2023-01-23T19:02:45.029Z,10.35
2023-01-23T19:05:12.304Z,10.85
2023-01-23T19:07:39.658Z,9.70
2023-01-23T19:10:13.403Z,9.57
2023-01-23T19:13:01.892Z,8.10
2023-01-23T19:15:56.837Z,8.50
2023-01-23T19:18:45.786Z,7.40
2023-01-23T19:21:22.989Z,6.80
2023-01-23T19:23:56.037Z,6.18
2023-01-23T19:26:24.831Z,8.32
2023-01-23T19:28:52.478Z,8.02
2023-01-23T19:31:25.784Z,5.32
2023-01-23T19:33:53.921Z,7.68
2023-01-23T19:36:21.900Z,7.00
2023-01-23T19:38:48.661Z,7.13
2023-01-23T19:41:21.627Z,8.57
2023-01-23T19:43:54.403Z,9.38
2023-01-23T19:48:48.885Z,7.20
2023-01-23T19:51:20.038Z,8.82
2023-01-23T19:53:46.753Z,8.77
2023-01-23T19:56:15.808Z,8.40
2023-01-23T19:58:42.848Z,7.13
2023-01-23T20:01:38.538Z,8.43
2023-01-23T20:04:07.563Z,7.85
2023-01-23T20:06:38.580Z,8.18
2023-01-23T20:09:05.231Z,8.13
2023-01-23T20:11:31.937Z,12.27
2023-01-23T20:13:58.878Z,9.65
2023-01-23T20:16:26.259Z,10.50
2023-01-23T20:18:54.517Z,10.68
2023-01-23T20:21:23.761Z,9.38
2023-01-23T20:23:51.602Z,10.95
2023-01-23T20:26:20.392Z,9.98
2023-01-23T20:28:48.211Z,9.30
2023-01-23T20:31:15.176Z,10.55
2023-01-23T20:33:42.509Z,9.88
2023-01-23T20:36:13.287Z,10.18
2023-01-23T20:38:41.640Z,9.75
2023-01-23T20:41:14.117Z,8.98
2023-01-23T20:43:43.133Z,10.75
2023-01-23T20:46:12.795Z,8.75
2023-01-23T20:48:44.148Z,9.45
2023-01-23T20:51:11.792Z,10.18
2023-01-23T20:53:39.825Z,8.40
2023-01-23T20:56:09.908Z,11.00
2023-01-23T20:58:58.059Z,13.65
2023-01-23T21:01:27.988Z,12.57
2023-01-23T21:03:55.748Z,9.63
2023-01-23T21:06:22.994Z,17.20
2023-01-23T21:08:49.671Z,13.38
2023-01-23T21:11:18.622Z,12.75
2023-01-23T21:13:50.846Z,13.57
2023-01-23T21:16:18.058Z,13.27
2023-01-23T21:18:46.793Z,16.55
2023-01-23T21:21:15.963Z,15.95
2023-01-23T21:23:45.573Z,16.42
2023-01-23T21:26:12.813Z,23.08
2023-01-23T21:28:40.212Z,8.68
2023-01-23T21:31:15.643Z,9.48
2023-01-23T21:33:46.646Z,8.98
2023-01-23T21:36:15.953Z,8.73
2023-01-23T21:38:42.885Z,7.88
2023-01-23T21:41:09.987Z,10.40
2023-01-23T21:43:36.489Z,9.45
2023-01-23T21:48:31.951Z,9.02
2023-01-23T21:51:06.846Z,10.60
2023-01-23T21:53:33.391Z,12.15
2023-01-23T21:55:59.985Z,12.77
2023-01-23T21:58:26.629Z,8.05
2023-01-23T22:01:16.296Z,7.90
2023-01-23T22:03:43.589Z,7.22
2023-01-23T22:06:10.786Z,9.07
2023-01-23T22:08:37.924Z,9.43
2023-01-23T22:11:05.660Z,8.35
2023-01-23T22:13:32.671Z,8.20
2023-01-23T22:16:00.274Z,6.88
2023-01-23T22:18:28.168Z,9.23
2023-01-23T22:20:59.014Z,6.03
2023-01-23T22:23:26.100Z,8.88
2023-01-23T22:25:56.340Z,9.23
2023-01-23T22:28:23.570Z,7.70
2023-01-23T22:30:50.246Z,8.60
2023-01-23T22:33:17.768Z,8.95
2023-01-23T22:35:45.304Z,9.07
2023-01-23T22:38:14.735Z,8.68
2023-01-23T22:40:41.855Z,6.63
2023-01-23T22:43:09.778Z,8.32
2023-01-23T22:45:36.794Z,7.30
2023-01-23T22:48:03.429Z,8.73
2023-01-23T22:50:29.872Z,8.65
2023-01-23T22:52:56.343Z,7.55
2023-01-23T22:55:23.736Z,8.38
2023-01-23T23:00:18.388Z,6.80
2023-01-23T23:02:45.954Z,7.88
2023-01-23T23:05:12.473Z,10.10
2023-01-23T23:07:40.437Z,8.05
2023-01-23T23:10:08.949Z,9.80
2023-01-23T23:12:35.887Z,7.20
2023-01-23T23:15:03.131Z,7.80
2023-01-23T23:17:30.008Z,11.52
2023-01-23T23:22:23.348Z,11.35
2023-01-23T23:24:49.871Z,12.65
2023-01-23T23:27:16.516Z,8.38
2023-01-23T23:29:43.057Z,9.65
2023-01-23T23:32:09.907Z,9.30
2023-01-23T23:34:37.390Z,7.55
2023-01-23T23:37:04.061Z,6.70
2023-01-23T23:39:30.634Z,6.72
2023-01-23T23:41:58.407Z,8.20
2023-01-23T23:44:25.052Z,7.07
2023-01-23T23:46:51.533Z,8.35
2023-01-23T23:49:17.964Z,7.78
2023-01-23T23:51:45.168Z,9.07
2023-01-23T23:54:11.592Z,7.90
2023-01-23T23:56:38.821Z,6.88
2023-01-23T23:59:05.570Z,7.00
